sensor_id;sensor_type;location;lat;lon;timestamp;P1;durP1;ratioP1;P2;durP2;ratioP2
4766;SDS011;2397;53.576;9.746;2023-11-21T00:02:18;29.23;;;15.50;;
4766;SDS011;2397;53.576;9.746;2023-11-21T00:04:44;27.90;;;13.60;;
4766;SDS011;2397;53.576;9.746;2023-11-21T00:07:12;34.67;;;16.17;;
4766;SDS011;2397;53.576;9.746;2023-11-21T00:09:38;27.33;;;15.00;;
4766;SDS011;2397;53.576;9.746;2023-11-21T00:12:05;28.43;;;14.07;;
4766;SDS011;2397;53.576;9.746;2023-11-21T00:14:32;24.50;;;14.17;;
4766;SDS011;2397;53.576;9.746;2023-11-21T00:16:59;28.90;;;14.40;;
4766;SDS011;2397;53.576;9.746;2023-11-21T00:19:26;36.80;;;14.47;;
4766;SDS011;2397;53.576;9.746;2023-11-21T00:21:52;26.60;;;16.00;;
4766;SDS011;2397;53.576;9.746;2023-11-21T00:24:19;26.10;;;13.93;;
4766;SDS011;2397;53.576;9.746;2023-11-21T00:26:46;27.60;;;14.30;;
4766;SDS011;2397;53.576;9.746;2023-11-21T00:29:15;28.20;;;15.30;;
4766;SDS011;2397;53.576;9.746;2023-11-21T00:31:44;24.40;;;13.63;;
4766;SDS011;2397;53.576;9.746;2023-11-21T00:34:11;25.47;;;13.83;;
4766;SDS011;2397;53.576;9.746;2023-11-21T00:36:38;28.80;;;14.70;;
4766;SDS011;2397;53.576;9.746;2023-11-21T00:39:06;26.37;;;14.37;;
4766;SDS011;2397;53.576;9.746;2023-11-21T00:41:33;27.83;;;14.60;;
4766;SDS011;2397;53.576;9.746;2023-11-21T00:44:00;23.40;;;13.63;;
4766;SDS011;2397;53.576;9.746;2023-11-21T00:46:28;20.97;;;13.90;;
4766;SDS011;2397;53.576;9.746;2023-11-21T00:48:55;22.03;;;13.43;;
4766;SDS011;2397;53.576;9.746;2023-11-21T00:51:22;25.20;;;13.63;;
4766;SDS011;2397;53.576;9.746;2023-11-21T00:53:49;21.17;;;13.60;;
4766;SDS011;2397;53.576;9.746;2023-11-21T00:56:15;20.03;;;12.40;;
4766;SDS011;2397;53.576;9.746;2023-11-21T00:58:42;24.20;;;11.83;;
4766;SDS011;2397;53.576;9.746;2023-11-21T01:01:10;23.27;;;12.70;;
4766;SDS011;2397;53.576;9.746;2023-11-21T01:03:37;27.40;;;12.90;;
4766;SDS011;2397;53.576;9.746;2023-11-21T01:06:03;27.17;;;12.60;;
4766;SDS011;2397;53.576;9.746;2023-11-21T01:08:33;13.20;;;7.27;;
4766;SDS011;2397;53.576;9.746;2023-11-21T01:11:00;22.93;;;13.30;;
4766;SDS011;2397;53.576;9.746;2023-11-21T01:13:27;20.00;;;13.00;;
4766;SDS011;2397;53.576;9.746;2023-11-21T01:15:54;22.37;;;9.20;;
4766;SDS011;2397;53.576;9.746;2023-11-21T01:18:21;24.53;;;13.17;;
4766;SDS011;2397;53.576;9.746;2023-11-21T01:20:48;24.83;;;12.57;;
4766;SDS011;2397;53.576;9.746;2023-11-21T01:23:15;23.27;;;14.00;;
4766;SDS011;2397;53.576;9.746;2023-11-21T01:25:42;25.80;;;12.40;;
4766;SDS011;2397;53.576;9.746;2023-11-21T01:28:08;26.60;;;13.00;;
4766;SDS011;2397;53.576;9.746;2023-11-21T01:30:35;21.20;;;13.87;;
4766;SDS011;2397;53.576;9.746;2023-11-21T01:33:01;28.93;;;14.40;;
4766;SDS011;2397;53.576;9.746;2023-11-21T01:35:30;26.43;;;13.33;;
4766;SDS011;2397;53.576;9.746;2023-11-21T01:37:56;26.77;;;14.00;;
4766;SDS011;2397;53.576;9.746;2023-11-21T01:40:23;30.23;;;15.27;;
4766;SDS011;2397;53.576;9.746;2023-11-21T01:42:50;31.53;;;15.00;;
4766;SDS011;2397;53.576;9.746;2023-11-21T01:45:19;27.77;;;14.47;;
4766;SDS011;2397;53.576;9.746;2023-11-21T01:47:46;25.93;;;13.40;;
4766;SDS011;2397;53.576;9.746;2023-11-21T01:50:14;22.97;;;13.50;;
4766;SDS011;2397;53.576;9.746;2023-11-21T01:52:44;18.57;;;12.93;;
4766;SDS011;2397;53.576;9.746;2023-11-21T01:55:12;21.47;;;11.97;;
4766;SDS011;2397;53.576;9.746;2023-11-21T01:57:54;23.53;;;10.80;;
4766;SDS011;2397;53.576;9.746;2023-11-21T02:00:21;16.43;;;8.97;;
4766;SDS011;2397;53.576;9.746;2023-11-21T02:02:49;19.50;;;11.20;;
4766;SDS011;2397;53.576;9.746;2023-11-21T02:05:17;24.13;;;13.23;;
4766;SDS011;2397;53.576;9.746;2023-11-21T02:07:45;22.27;;;12.03;;
4766;SDS011;2397;53.576;9.746;2023-11-21T02:10:15;22.17;;;11.00;;
4766;SDS011;2397;53.576;9.746;2023-11-21T02:12:43;20.90;;;11.23;;
4766;SDS011;2397;53.576;9.746;2023-11-21T02:15:12;23.07;;;13.57;;
4766;SDS011;2397;53.576;9.746;2023-11-21T02:17:46;21.77;;;12.13;;
4766;SDS011;2397;53.576;9.746;2023-11-21T02:20:18;18.40;;;8.27;;
4766;SDS011;2397;53.576;9.746;2023-11-21T02:22:48;15.37;;;8.73;;
4766;SDS011;2397;53.576;9.746;2023-11-21T02:25:16;15.80;;;9.40;;
4766;SDS011;2397;53.576;9.746;2023-11-21T02:27:44;11.90;;;8.57;;
4766;SDS011;2397;53.576;9.746;2023-11-21T02:30:14;11.70;;;7.80;;
4766;SDS011;2397;53.576;9.746;2023-11-21T02:32:42;17.03;;;9.10;;
4766;SDS011;2397;53.576;9.746;2023-11-21T02:35:14;14.53;;;9.17;;
4766;SDS011;2397;53.576;9.746;2023-11-21T02:37:42;13.47;;;8.90;;
4766;SDS011;2397;53.576;9.746;2023-11-21T02:40:09;8.40;;;6.17;;
4766;SDS011;2397;53.576;9.746;2023-11-21T02:42:41;18.97;;;9.00;;
4766;SDS011;2397;53.576;9.746;2023-11-21T02:45:08;13.30;;;8.13;;
4766;SDS011;2397;53.576;9.746;2023-11-21T02:47:35;11.37;;;8.23;;
4766;SDS011;2397;53.576;9.746;2023-11-21T02:50:01;9.70;;;6.90;;
4766;SDS011;2397;53.576;9.746;2023-11-21T02:52:28;14.83;;;8.77;;
4766;SDS011;2397;53.576;9.746;2023-11-21T02:54:55;9.17;;;7.73;;
4766;SDS011;2397;53.576;9.746;2023-11-21T02:57:22;11.63;;;7.30;;
4766;SDS011;2397;53.576;9.746;2023-11-21T02:59:48;9.70;;;7.30;;
4766;SDS011;2397;53.576;9.746;2023-11-21T03:02:15;13.30;;;7.57;;
4766;SDS011;2397;53.576;9.746;2023-11-21T03:04:43;11.37;;;7.40;;
4766;SDS011;2397;53.576;9.746;2023-11-21T03:07:09;7.60;;;6.20;;
4766;SDS011;2397;53.576;9.746;2023-11-21T03:09:36;11.10;;;6.97;;
4766;SDS011;2397;53.576;9.746;2023-11-21T03:12:02;8.80;;;6.10;;
4766;SDS011;2397;53.576;9.746;2023-11-21T03:14:29;9.13;;;6.70;;
4766;SDS011;2397;53.576;9.746;2023-11-21T03:16:56;12.50;;;8.33;;
4766;SDS011;2397;53.576;9.746;2023-11-21T03:19:23;12.17;;;7.20;;
4766;SDS011;2397;53.576;9.746;2023-11-21T03:21:50;9.60;;;7.20;;
4766;SDS011;2397;53.576;9.746;2023-11-21T03:24:19;8.13;;;6.50;;
4766;SDS011;2397;53.576;9.746;2023-11-21T03:26:46;8.30;;;6.77;;
4766;SDS011;2397;53.576;9.746;2023-11-21T03:29:17;8.93;;;6.77;;
4766;SDS011;2397;53.576;9.746;2023-11-21T03:31:43;9.40;;;6.60;;
4766;SDS011;2397;53.576;9.746;2023-11-21T03:34:14;8.93;;;6.17;;
4766;SDS011;2397;53.576;9.746;2023-11-21T03:36:43;10.50;;;6.83;;
4766;SDS011;2397;53.576;9.746;2023-11-21T03:39:11;10.87;;;7.13;;
4766;SDS011;2397;53.576;9.746;2023-11-21T03:41:37;11.53;;;6.97;;
4766;SDS011;2397;53.576;9.746;2023-11-21T03:44:04;9.73;;;7.00;;
4766;SDS011;2397;53.576;9.746;2023-11-21T03:46:30;8.27;;;7.03;;
4766;SDS011;2397;53.576;9.746;2023-11-21T03:48:57;10.23;;;7.03;;
4766;SDS011;2397;53.576;9.746;2023-11-21T03:51:23;10.00;;;7.20;;
4766;SDS011;2397;53.576;9.746;2023-11-21T03:53:50;10.10;;;6.50;;
4766;SDS011;2397;53.576;9.746;2023-11-21T03:56:16;10.37;;;7.87;;
4766;SDS011;2397;53.576;9.746;2023-11-21T03:58:43;7.67;;;6.00;;
4766;SDS011;2397;53.576;9.746;2023-11-21T04:01:09;8.00;;;6.17;;
4766;SDS011;2397;53.576;9.746;2023-11-21T04:03:36;12.43;;;7.00;;
4766;SDS011;2397;53.576;9.746;2023-11-21T04:06:03;9.47;;;7.23;;
4766;SDS011;2397;53.576;9.746;2023-11-21T04:08:29;10.60;;;7.83;;
4766;SDS011;2397;53.576;9.746;2023-11-21T04:10:56;11.37;;;7.83;;
4766;SDS011;2397;53.576;9.746;2023-11-21T04:13:23;9.97;;;7.90;;
4766;SDS011;2397;53.576;9.746;2023-11-21T04:15:49;12.57;;;7.30;;
4766;SDS011;2397;53.576;9.746;2023-11-21T04:18:16;9.67;;;7.17;;
4766;SDS011;2397;53.576;9.746;2023-11-21T04:20:42;10.63;;;7.43;;
4766;SDS011;2397;53.576;9.746;2023-11-21T04:23:09;9.57;;;7.70;;
4766;SDS011;2397;53.576;9.746;2023-11-21T04:25:36;10.50;;;7.40;;
4766;SDS011;2397;53.576;9.746;2023-11-21T04:28:03;10.20;;;7.33;;
4766;SDS011;2397;53.576;9.746;2023-11-21T04:30:30;13.50;;;6.77;;
4766;SDS011;2397;53.576;9.746;2023-11-21T04:32:57;12.13;;;7.00;;
4766;SDS011;2397;53.576;9.746;2023-11-21T04:35:24;11.77;;;7.10;;
4766;SDS011;2397;53.576;9.746;2023-11-21T04:37:50;7.93;;;6.47;;
4766;SDS011;2397;53.576;9.746;2023-11-21T04:40:17;11.17;;;7.70;;
4766;SDS011;2397;53.576;9.746;2023-11-21T04:42:43;12.27;;;8.10;;
4766;SDS011;2397;53.576;9.746;2023-11-21T04:45:10;11.17;;;7.10;;
4766;SDS011;2397;53.576;9.746;2023-11-21T04:47:39;10.07;;;8.63;;
4766;SDS011;2397;53.576;9.746;2023-11-21T04:50:06;13.10;;;7.80;;
4766;SDS011;2397;53.576;9.746;2023-11-21T04:52:32;11.93;;;8.13;;
4766;SDS011;2397;53.576;9.746;2023-11-21T04:54:59;9.50;;;6.83;;
4766;SDS011;2397;53.576;9.746;2023-11-21T04:57:27;12.70;;;7.83;;
4766;SDS011;2397;53.576;9.746;2023-11-21T04:59:55;11.87;;;7.50;;
4766;SDS011;2397;53.576;9.746;2023-11-21T05:02:21;13.37;;;7.77;;
4766;SDS011;2397;53.576;9.746;2023-11-21T05:05:01;11.73;;;7.87;;
4766;SDS011;2397;53.576;9.746;2023-11-21T05:07:28;11.07;;;7.77;;
4766;SDS011;2397;53.576;9.746;2023-11-21T05:09:58;11.13;;;7.77;;
4766;SDS011;2397;53.576;9.746;2023-11-21T05:12:24;7.57;;;6.57;;
4766;SDS011;2397;53.576;9.746;2023-11-21T05:14:51;9.33;;;6.93;;
4766;SDS011;2397;53.576;9.746;2023-11-21T05:17:18;9.80;;;7.73;;
4766;SDS011;2397;53.576;9.746;2023-11-21T05:19:44;12.87;;;7.60;;
4766;SDS011;2397;53.576;9.746;2023-11-21T05:22:15;11.23;;;7.97;;
4766;SDS011;2397;53.576;9.746;2023-11-21T05:24:42;9.63;;;7.27;;
4766;SDS011;2397;53.576;9.746;2023-11-21T05:27:08;13.53;;;7.93;;
4766;SDS011;2397;53.576;9.746;2023-11-21T05:29:36;10.37;;;7.70;;
4766;SDS011;2397;53.576;9.746;2023-11-21T05:32:04;8.47;;;7.20;;
4766;SDS011;2397;53.576;9.746;2023-11-21T05:34:30;9.87;;;6.83;;
4766;SDS011;2397;53.576;9.746;2023-11-21T05:36:57;10.70;;;8.17;;
4766;SDS011;2397;53.576;9.746;2023-11-21T05:39:24;11.53;;;7.47;;
4766;SDS011;2397;53.576;9.746;2023-11-21T05:41:51;9.97;;;7.20;;
4766;SDS011;2397;53.576;9.746;2023-11-21T05:44:17;11.33;;;7.10;;
4766;SDS011;2397;53.576;9.746;2023-11-21T05:46:44;9.33;;;7.70;;
4766;SDS011;2397;53.576;9.746;2023-11-21T05:49:11;12.90;;;8.13;;
4766;SDS011;2397;53.576;9.746;2023-11-21T05:51:37;9.57;;;7.40;;
4766;SDS011;2397;53.576;9.746;2023-11-21T05:54:05;9.40;;;7.93;;
4766;SDS011;2397;53.576;9.746;2023-11-21T05:56:31;10.80;;;7.63;;
4766;SDS011;2397;53.576;9.746;2023-11-21T05:58:58;7.63;;;6.50;;
4766;SDS011;2397;53.576;9.746;2023-11-21T06:01:26;11.23;;;7.27;;
4766;SDS011;2397;53.576;9.746;2023-11-21T06:03:56;10.90;;;8.40;;
4766;SDS011;2397;53.576;9.746;2023-11-21T06:06:22;10.47;;;7.43;;
4766;SDS011;2397;53.576;9.746;2023-11-21T06:08:50;10.57;;;7.40;;
4766;SDS011;2397;53.576;9.746;2023-11-21T06:11:17;9.27;;;7.13;;
4766;SDS011;2397;53.576;9.746;2023-11-21T06:13:44;9.90;;;6.73;;
4766;SDS011;2397;53.576;9.746;2023-11-21T06:16:10;9.97;;;7.23;;
4766;SDS011;2397;53.576;9.746;2023-11-21T06:18:39;10.00;;;7.37;;
4766;SDS011;2397;53.576;9.746;2023-11-21T06:21:08;14.30;;;8.57;;
4766;SDS011;2397;53.576;9.746;2023-11-21T06:23:35;11.30;;;8.00;;
4766;SDS011;2397;53.576;9.746;2023-11-21T06:26:02;8.30;;;7.10;;
4766;SDS011;2397;53.576;9.746;2023-11-21T06:28:30;8.70;;;7.17;;
4766;SDS011;2397;53.576;9.746;2023-11-21T06:30:57;15.50;;;7.30;;
4766;SDS011;2397;53.576;9.746;2023-11-21T06:33:24;11.57;;;8.50;;
4766;SDS011;2397;53.576;9.746;2023-11-21T06:35:53;10.77;;;7.50;;
4766;SDS011;2397;53.576;9.746;2023-11-21T06:38:21;11.23;;;7.40;;
4766;SDS011;2397;53.576;9.746;2023-11-21T06:40:48;13.00;;;7.80;;
4766;SDS011;2397;53.576;9.746;2023-11-21T06:43:15;9.30;;;7.40;;
4766;SDS011;2397;53.576;9.746;2023-11-21T06:45:42;12.87;;;7.53;;
4766;SDS011;2397;53.576;9.746;2023-11-21T06:48:08;10.10;;;7.57;;
4766;SDS011;2397;53.576;9.746;2023-11-21T06:50:35;8.93;;;7.37;;
4766;SDS011;2397;53.576;9.746;2023-11-21T06:53:01;11.53;;;8.17;;
4766;SDS011;2397;53.576;9.746;2023-11-21T06:55:30;8.27;;;7.40;;
4766;SDS011;2397;53.576;9.746;2023-11-21T06:57:57;11.77;;;7.37;;
4766;SDS011;2397;53.576;9.746;2023-11-21T07:00:24;14.70;;;7.60;;
4766;SDS011;2397;53.576;9.746;2023-11-21T07:02:50;11.20;;;7.93;;
4766;SDS011;2397;53.576;9.746;2023-11-21T07:05:17;11.20;;;7.23;;
4766;SDS011;2397;53.576;9.746;2023-11-21T07:07:48;9.53;;;7.10;;
4766;SDS011;2397;53.576;9.746;2023-11-21T07:10:15;9.07;;;6.90;;
4766;SDS011;2397;53.576;9.746;2023-11-21T07:12:43;12.10;;;8.23;;
4766;SDS011;2397;53.576;9.746;2023-11-21T07:15:09;15.00;;;8.43;;
4766;SDS011;2397;53.576;9.746;2023-11-21T07:17:36;12.70;;;8.27;;
4766;SDS011;2397;53.576;9.746;2023-11-21T07:20:06;13.63;;;8.27;;
4766;SDS011;2397;53.576;9.746;2023-11-21T07:22:33;14.97;;;8.13;;
4766;SDS011;2397;53.576;9.746;2023-11-21T07:25:00;10.17;;;7.80;;
4766;SDS011;2397;53.576;9.746;2023-11-21T07:27:26;9.70;;;7.33;;
4766;SDS011;2397;53.576;9.746;2023-11-21T07:29:53;8.90;;;6.47;;
4766;SDS011;2397;53.576;9.746;2023-11-21T07:32:20;9.17;;;6.93;;
4766;SDS011;2397;53.576;9.746;2023-11-21T07:34:47;13.97;;;7.80;;
4766;SDS011;2397;53.576;9.746;2023-11-21T07:37:13;9.90;;;7.17;;
4766;SDS011;2397;53.576;9.746;2023-11-21T07:39:40;11.00;;;7.97;;
4766;SDS011;2397;53.576;9.746;2023-11-21T07:42:08;8.63;;;6.90;;
4766;SDS011;2397;53.576;9.746;2023-11-21T07:44:35;9.30;;;6.90;;
4766;SDS011;2397;53.576;9.746;2023-11-21T07:47:02;8.77;;;7.03;;
4766;SDS011;2397;53.576;9.746;2023-11-21T07:49:28;8.20;;;7.10;;
4766;SDS011;2397;53.576;9.746;2023-11-21T07:51:55;9.93;;;6.33;;
4766;SDS011;2397;53.576;9.746;2023-11-21T07:54:21;7.73;;;6.73;;
4766;SDS011;2397;53.576;9.746;2023-11-21T07:56:48;9.03;;;6.43;;
4766;SDS011;2397;53.576;9.746;2023-11-21T07:59:14;9.23;;;6.83;;
4766;SDS011;2397;53.576;9.746;2023-11-21T08:01:41;11.00;;;7.50;;
4766;SDS011;2397;53.576;9.746;2023-11-21T08:04:09;8.37;;;7.10;;
4766;SDS011;2397;53.576;9.746;2023-11-21T08:06:36;8.60;;;6.40;;
4766;SDS011;2397;53.576;9.746;2023-11-21T08:09:02;9.80;;;7.30;;
4766;SDS011;2397;53.576;9.746;2023-11-21T08:11:29;8.80;;;7.07;;
4766;SDS011;2397;53.576;9.746;2023-11-21T08:13:58;15.73;;;8.40;;
4766;SDS011;2397;53.576;9.746;2023-11-21T08:16:25;12.50;;;7.10;;
4766;SDS011;2397;53.576;9.746;2023-11-21T08:18:52;17.87;;;7.20;;
4766;SDS011;2397;53.576;9.746;2023-11-21T08:21:18;9.90;;;7.20;;
4766;SDS011;2397;53.576;9.746;2023-11-21T08:23:45;11.87;;;7.07;;
4766;SDS011;2397;53.576;9.746;2023-11-21T08:26:15;8.93;;;7.63;;
4766;SDS011;2397;53.576;9.746;2023-11-21T08:28:42;11.60;;;6.90;;
4766;SDS011;2397;53.576;9.746;2023-11-21T08:31:08;10.60;;;7.57;;
4766;SDS011;2397;53.576;9.746;2023-11-21T08:33:38;9.07;;;7.17;;
4766;SDS011;2397;53.576;9.746;2023-11-21T08:36:08;9.27;;;6.93;;
4766;SDS011;2397;53.576;9.746;2023-11-21T08:38:35;10.00;;;7.77;;
4766;SDS011;2397;53.576;9.746;2023-11-21T08:41:06;8.40;;;7.17;;
4766;SDS011;2397;53.576;9.746;2023-11-21T08:43:34;12.00;;;7.00;;
4766;SDS011;2397;53.576;9.746;2023-11-21T08:46:02;11.40;;;8.37;;
4766;SDS011;2397;53.576;9.746;2023-11-21T08:48:29;9.50;;;7.23;;
4766;SDS011;2397;53.576;9.746;2023-11-21T08:50:56;8.73;;;7.50;;
4766;SDS011;2397;53.576;9.746;2023-11-21T08:53:22;7.93;;;6.23;;
4766;SDS011;2397;53.576;9.746;2023-11-21T08:55:49;11.60;;;6.43;;
4766;SDS011;2397;53.576;9.746;2023-11-21T08:58:16;10.23;;;6.23;;
4766;SDS011;2397;53.576;9.746;2023-11-21T09:00:43;7.00;;;6.30;;
4766;SDS011;2397;53.576;9.746;2023-11-21T09:03:12;8.30;;;6.43;;
4766;SDS011;2397;53.576;9.746;2023-11-21T09:05:40;6.47;;;5.57;;
4766;SDS011;2397;53.576;9.746;2023-11-21T09:08:06;7.03;;;5.50;;
4766;SDS011;2397;53.576;9.746;2023-11-21T09:10:33;7.23;;;5.20;;
4766;SDS011;2397;53.576;9.746;2023-11-21T09:13:03;5.93;;;5.33;;
4766;SDS011;2397;53.576;9.746;2023-11-21T09:15:29;7.00;;;5.57;;
4766;SDS011;2397;53.576;9.746;2023-11-21T09:17:56;9.17;;;6.57;;
4766;SDS011;2397;53.576;9.746;2023-11-21T09:20:22;11.07;;;6.20;;
4766;SDS011;2397;53.576;9.746;2023-11-21T09:22:49;5.73;;;5.13;;
4766;SDS011;2397;53.576;9.746;2023-11-21T09:25:16;6.70;;;4.73;;
4766;SDS011;2397;53.576;9.746;2023-11-21T09:27:43;9.20;;;6.30;;
4766;SDS011;2397;53.576;9.746;2023-11-21T09:30:10;6.77;;;5.60;;
4766;SDS011;2397;53.576;9.746;2023-11-21T09:32:39;7.63;;;4.17;;
4766;SDS011;2397;53.576;9.746;2023-11-21T09:35:07;3.93;;;3.60;;
4766;SDS011;2397;53.576;9.746;2023-11-21T09:37:35;4.83;;;4.20;;
4766;SDS011;2397;53.576;9.746;2023-11-21T09:40:02;4.77;;;4.10;;
4766;SDS011;2397;53.576;9.746;2023-11-21T09:42:30;7.73;;;3.93;;
4766;SDS011;2397;53.576;9.746;2023-11-21T09:45:03;3.73;;;3.30;;
4766;SDS011;2397;53.576;9.746;2023-11-21T09:47:35;5.10;;;3.00;;
4766;SDS011;2397;53.576;9.746;2023-11-21T09:50:05;6.13;;;3.57;;
4766;SDS011;2397;53.576;9.746;2023-11-21T09:52:49;3.70;;;3.30;;
4766;SDS011;2397;53.576;9.746;2023-11-21T09:55:24;3.70;;;3.40;;
4766;SDS011;2397;53.576;9.746;2023-11-21T09:57:53;3.70;;;3.40;;
4766;SDS011;2397;53.576;9.746;2023-11-21T10:00:22;4.20;;;3.20;;
4766;SDS011;2397;53.576;9.746;2023-11-21T10:02:49;3.70;;;3.07;;
4766;SDS011;2397;53.576;9.746;2023-11-21T10:05:17;4.00;;;3.60;;
4766;SDS011;2397;53.576;9.746;2023-11-21T10:07:44;3.80;;;3.40;;
4766;SDS011;2397;53.576;9.746;2023-11-21T10:10:11;3.30;;;3.00;;
4766;SDS011;2397;53.576;9.746;2023-11-21T10:12:39;3.70;;;3.13;;
4766;SDS011;2397;53.576;9.746;2023-11-21T10:15:10;4.27;;;3.10;;
4766;SDS011;2397;53.576;9.746;2023-11-21T10:17:42;3.13;;;2.80;;
4766;SDS011;2397;53.576;9.746;2023-11-21T10:20:11;3.10;;;2.80;;
4766;SDS011;2397;53.576;9.746;2023-11-21T10:22:39;3.03;;;2.73;;
4766;SDS011;2397;53.576;9.746;2023-11-21T10:25:10;3.43;;;3.13;;
4766;SDS011;2397;53.576;9.746;2023-11-21T10:27:37;13.67;;;5.57;;
4766;SDS011;2397;53.576;9.746;2023-11-21T10:30:05;4.73;;;3.80;;
4766;SDS011;2397;53.576;9.746;2023-11-21T10:32:34;3.67;;;3.20;;
4766;SDS011;2397;53.576;9.746;2023-11-21T10:35:00;5.20;;;4.00;;
4766;SDS011;2397;53.576;9.746;2023-11-21T10:37:32;3.10;;;2.90;;
4766;SDS011;2397;53.576;9.746;2023-11-21T10:39:59;4.40;;;3.70;;
4766;SDS011;2397;53.576;9.746;2023-11-21T10:42:26;4.70;;;3.57;;
4766;SDS011;2397;53.576;9.746;2023-11-21T10:44:55;3.10;;;2.80;;
4766;SDS011;2397;53.576;9.746;2023-11-21T10:47:22;4.20;;;2.97;;
4766;SDS011;2397;53.576;9.746;2023-11-21T10:49:50;3.23;;;2.93;;
4766;SDS011;2397;53.576;9.746;2023-11-21T10:52:19;3.47;;;2.80;;
4766;SDS011;2397;53.576;9.746;2023-11-21T10:54:46;3.80;;;3.00;;
4766;SDS011;2397;53.576;9.746;2023-11-21T10:57:16;3.90;;;2.90;;
4766;SDS011;2397;53.576;9.746;2023-11-21T10:59:46;3.13;;;2.83;;
4766;SDS011;2397;53.576;9.746;2023-11-21T11:02:23;3.87;;;2.90;;
4766;SDS011;2397;53.576;9.746;2023-11-21T11:04:55;3.03;;;2.83;;
4766;SDS011;2397;53.576;9.746;2023-11-21T11:07:26;2.80;;;2.60;;
4766;SDS011;2397;53.576;9.746;2023-11-21T11:09:54;4.03;;;3.70;;
4766;SDS011;2397;53.576;9.746;2023-11-21T11:12:21;3.00;;;2.70;;
4766;SDS011;2397;53.576;9.746;2023-11-21T11:14:50;3.60;;;2.80;;
4766;SDS011;2397;53.576;9.746;2023-11-21T11:17:21;3.07;;;2.60;;
4766;SDS011;2397;53.576;9.746;2023-11-21T11:19:48;3.00;;;2.80;;
4766;SDS011;2397;53.576;9.746;2023-11-21T11:22:19;3.60;;;3.07;;
4766;SDS011;2397;53.576;9.746;2023-11-21T11:27:44;2.33;;;2.17;;
4766;SDS011;2397;53.576;9.746;2023-11-21T11:30:35;3.50;;;3.10;;
4766;SDS011;2397;53.576;9.746;2023-11-21T11:36:25;4.07;;;2.63;;
4766;SDS011;2397;53.576;9.746;2023-11-21T11:38:55;3.27;;;2.97;;
4766;SDS011;2397;53.576;9.746;2023-11-21T11:41:27;3.30;;;3.00;;
4766;SDS011;2397;53.576;9.746;2023-11-21T11:43:57;3.90;;;3.10;;
4766;SDS011;2397;53.576;9.746;2023-11-21T11:46:42;3.10;;;2.87;;
4766;SDS011;2397;53.576;9.746;2023-11-21T11:49:27;3.20;;;2.80;;
4766;SDS011;2397;53.576;9.746;2023-11-21T11:54:59;6.47;;;2.80;;
4766;SDS011;2397;53.576;9.746;2023-11-21T11:57:29;3.40;;;2.80;;
4766;SDS011;2397;53.576;9.746;2023-11-21T12:00:07;4.40;;;2.97;;
4766;SDS011;2397;53.576;9.746;2023-11-21T12:02:36;3.10;;;2.80;;
4766;SDS011;2397;53.576;9.746;2023-11-21T12:05:10;3.03;;;2.83;;
4766;SDS011;2397;53.576;9.746;2023-11-21T12:10:13;2.93;;;2.63;;
4766;SDS011;2397;53.576;9.746;2023-11-21T12:12:48;2.80;;;2.60;;
4766;SDS011;2397;53.576;9.746;2023-11-21T12:15:16;2.70;;;2.50;;
4766;SDS011;2397;53.576;9.746;2023-11-21T12:17:43;2.40;;;2.20;;
4766;SDS011;2397;53.576;9.746;2023-11-21T12:20:13;4.00;;;2.63;;
4766;SDS011;2397;53.576;9.746;2023-11-21T12:22:46;2.60;;;2.40;;
4766;SDS011;2397;53.576;9.746;2023-11-21T12:25:17;3.20;;;2.90;;
4766;SDS011;2397;53.576;9.746;2023-11-21T12:27:59;3.90;;;2.70;;
4766;SDS011;2397;53.576;9.746;2023-11-21T12:30:26;3.23;;;2.83;;
4766;SDS011;2397;53.576;9.746;2023-11-21T12:32:57;2.83;;;2.53;;
4766;SDS011;2397;53.576;9.746;2023-11-21T12:35:27;14.10;;;3.37;;
4766;SDS011;2397;53.576;9.746;2023-11-21T12:37:56;22.97;;;4.70;;
4766;SDS011;2397;53.576;9.746;2023-11-21T12:40:26;7.63;;;2.97;;
4766;SDS011;2397;53.576;9.746;2023-11-21T12:42:55;4.13;;;3.50;;
4766;SDS011;2397;53.576;9.746;2023-11-21T12:45:23;5.63;;;2.73;;
4766;SDS011;2397;53.576;9.746;2023-11-21T12:47:59;2.40;;;2.20;;
4766;SDS011;2397;53.576;9.746;2023-11-21T12:50:30;3.13;;;2.90;;
4766;SDS011;2397;53.576;9.746;2023-11-21T12:53:01;3.17;;;2.97;;
4766;SDS011;2397;53.576;9.746;2023-11-21T12:55:31;3.13;;;2.83;;
4766;SDS011;2397;53.576;9.746;2023-11-21T12:58:01;2.70;;;2.47;;
4766;SDS011;2397;53.576;9.746;2023-11-21T13:00:47;5.03;;;2.90;;
4766;SDS011;2397;53.576;9.746;2023-11-21T13:03:16;3.30;;;2.67;;
4766;SDS011;2397;53.576;9.746;2023-11-21T13:05:46;3.10;;;2.80;;
4766;SDS011;2397;53.576;9.746;2023-11-21T13:08:19;3.47;;;3.17;;
4766;SDS011;2397;53.576;9.746;2023-11-21T13:10:49;3.50;;;3.20;;
4766;SDS011;2397;53.576;9.746;2023-11-21T13:13:18;3.43;;;3.13;;
4766;SDS011;2397;53.576;9.746;2023-11-21T13:15:56;3.40;;;3.10;;
4766;SDS011;2397;53.576;9.746;2023-11-21T13:18:27;2.57;;;2.37;;
4766;SDS011;2397;53.576;9.746;2023-11-21T13:20:55;5.07;;;2.67;;
4766;SDS011;2397;53.576;9.746;2023-11-21T13:23:23;3.77;;;2.80;;
4766;SDS011;2397;53.576;9.746;2023-11-21T13:25:50;5.07;;;2.43;;
4766;SDS011;2397;53.576;9.746;2023-11-21T13:28:27;4.87;;;2.87;;
4766;SDS011;2397;53.576;9.746;2023-11-21T13:30:58;3.10;;;2.80;;
4766;SDS011;2397;53.576;9.746;2023-11-21T13:33:37;3.17;;;2.90;;
4766;SDS011;2397;53.576;9.746;2023-11-21T13:36:05;2.60;;;2.40;;
4766;SDS011;2397;53.576;9.746;2023-11-21T13:38:34;3.00;;;2.70;;
4766;SDS011;2397;53.576;9.746;2023-11-21T13:41:01;5.00;;;3.50;;
4766;SDS011;2397;53.576;9.746;2023-11-21T13:43:29;3.30;;;3.00;;
4766;SDS011;2397;53.576;9.746;2023-11-21T13:45:58;5.40;;;2.60;;
4766;SDS011;2397;53.576;9.746;2023-11-21T13:48:39;2.67;;;2.40;;
4766;SDS011;2397;53.576;9.746;2023-11-21T13:51:15;2.80;;;2.60;;
4766;SDS011;2397;53.576;9.746;2023-11-21T13:53:45;3.50;;;3.03;;
4766;SDS011;2397;53.576;9.746;2023-11-21T13:56:14;3.40;;;3.10;;
4766;SDS011;2397;53.576;9.746;2023-11-21T13:58:50;3.80;;;3.20;;
4766;SDS011;2397;53.576;9.746;2023-11-21T14:01:20;3.07;;;2.73;;
4766;SDS011;2397;53.576;9.746;2023-11-21T14:06:43;9.20;;;4.23;;
4766;SDS011;2397;53.576;9.746;2023-11-21T14:09:15;4.50;;;4.10;;
4766;SDS011;2397;53.576;9.746;2023-11-21T14:11:54;8.73;;;3.70;;
4766;SDS011;2397;53.576;9.746;2023-11-21T14:14:24;4.20;;;3.20;;
4766;SDS011;2397;53.576;9.746;2023-11-21T14:16:52;4.70;;;3.50;;
4766;SDS011;2397;53.576;9.746;2023-11-21T14:19:19;3.20;;;2.90;;
4766;SDS011;2397;53.576;9.746;2023-11-21T14:21:46;3.50;;;3.20;;
4766;SDS011;2397;53.576;9.746;2023-11-21T14:24:15;3.33;;;3.03;;
4766;SDS011;2397;53.576;9.746;2023-11-21T14:26:44;3.80;;;3.50;;
4766;SDS011;2397;53.576;9.746;2023-11-21T14:29:12;3.53;;;3.23;;
4766;SDS011;2397;53.576;9.746;2023-11-21T14:31:42;3.80;;;3.50;;
4766;SDS011;2397;53.576;9.746;2023-11-21T14:34:09;3.90;;;2.67;;
4766;SDS011;2397;53.576;9.746;2023-11-21T14:36:38;3.27;;;3.07;;
4766;SDS011;2397;53.576;9.746;2023-11-21T14:39:07;3.10;;;2.83;;
4766;SDS011;2397;53.576;9.746;2023-11-21T14:41:37;5.13;;;3.40;;
4766;SDS011;2397;53.576;9.746;2023-11-21T14:44:05;3.50;;;3.13;;
4766;SDS011;2397;53.576;9.746;2023-11-21T14:46:34;4.30;;;3.17;;
4766;SDS011;2397;53.576;9.746;2023-11-21T14:49:03;5.70;;;3.20;;
4766;SDS011;2397;53.576;9.746;2023-11-21T14:51:51;4.17;;;3.23;;
4766;SDS011;2397;53.576;9.746;2023-11-21T14:54:40;4.80;;;3.10;;
4766;SDS011;2397;53.576;9.746;2023-11-21T14:57:08;5.93;;;3.43;;
4766;SDS011;2397;53.576;9.746;2023-11-21T14:59:44;3.43;;;3.13;;
4766;SDS011;2397;53.576;9.746;2023-11-21T15:02:14;3.20;;;2.90;;
4766;SDS011;2397;53.576;9.746;2023-11-21T15:04:42;4.20;;;3.50;;
4766;SDS011;2397;53.576;9.746;2023-11-21T15:07:09;3.13;;;2.83;;
4766;SDS011;2397;53.576;9.746;2023-11-21T15:09:37;3.40;;;3.10;;
4766;SDS011;2397;53.576;9.746;2023-11-21T15:12:08;4.47;;;3.30;;
4766;SDS011;2397;53.576;9.746;2023-11-21T15:14:43;4.93;;;3.07;;
4766;SDS011;2397;53.576;9.746;2023-11-21T15:17:16;6.43;;;2.90;;
4766;SDS011;2397;53.576;9.746;2023-11-21T15:19:51;3.90;;;2.70;;
4766;SDS011;2397;53.576;9.746;2023-11-21T15:22:19;2.70;;;2.50;;
4766;SDS011;2397;53.576;9.746;2023-11-21T15:24:46;2.63;;;2.43;;
4766;SDS011;2397;53.576;9.746;2023-11-21T15:27:14;3.03;;;2.73;;
4766;SDS011;2397;53.576;9.746;2023-11-21T15:29:42;2.80;;;2.60;;
4766;SDS011;2397;53.576;9.746;2023-11-21T15:32:09;2.83;;;2.53;;